sensor_id;sensor_type;location;lat;lon;timestamp;P1;durP1;ratioP1;P2;durP2;ratioP2
67187;SDS011;54117;53.532;49.426;2022-09-17T00:01:01;27.17;;;17.08;;
67187;SDS011;54117;53.532;49.426;2022-09-17T00:03:30;26.80;;;16.98;;
67187;SDS011;54117;53.532;49.426;2022-09-17T00:06:03;24.08;;;16.80;;
67187;SDS011;54117;53.532;49.426;2022-09-17T00:08:32;25.88;;;17.75;;
67187;SDS011;54117;53.532;49.426;2022-09-17T00:13:45;29.23;;;17.25;;
67187;SDS011;54117;53.532;49.426;2022-09-17T00:16:19;26.98;;;17.67;;
67187;SDS011;54117;53.532;49.426;2022-09-17T00:18:52;28.65;;;18.65;;
67187;SDS011;54117;53.532;49.426;2022-09-17T00:21:19;31.95;;;19.17;;
67187;SDS011;54117;53.532;49.426;2022-09-17T00:23:46;31.50;;;19.02;;
67187;SDS011;54117;53.532;49.426;2022-09-17T00:26:13;29.23;;;17.98;;
67187;SDS011;54117;53.532;49.426;2022-09-17T00:28:39;27.88;;;18.23;;
67187;SDS011;54117;53.532;49.426;2022-09-17T00:31:10;30.75;;;19.08;;
67187;SDS011;54117;53.532;49.426;2022-09-17T00:33:36;29.67;;;19.40;;
67187;SDS011;54117;53.532;49.426;2022-09-17T00:36:03;30.23;;;18.58;;
67187;SDS011;54117;53.532;49.426;2022-09-17T00:38:30;30.15;;;19.05;;
67187;SDS011;54117;53.532;49.426;2022-09-17T00:40:57;29.75;;;18.25;;
67187;SDS011;54117;53.532;49.426;2022-09-17T00:46:01;30.42;;;18.70;;
67187;SDS011;54117;53.532;49.426;2022-09-17T00:48:29;33.50;;;20.10;;
67187;SDS011;54117;53.532;49.426;2022-09-17T00:50:56;36.55;;;20.23;;
67187;SDS011;54117;53.532;49.426;2022-09-17T00:53:26;30.90;;;19.08;;
67187;SDS011;54117;53.532;49.426;2022-09-17T00:55:58;31.65;;;19.13;;
67187;SDS011;54117;53.532;49.426;2022-09-17T00:58:30;33.17;;;19.25;;
67187;SDS011;54117;53.532;49.426;2022-09-17T01:00:58;39.17;;;19.63;;
67187;SDS011;54117;53.532;49.426;2022-09-17T01:03:25;35.63;;;18.90;;
67187;SDS011;54117;53.532;49.426;2022-09-17T01:06:03;33.30;;;19.13;;
67187;SDS011;54117;53.532;49.426;2022-09-17T01:23:15;25.45;;;16.67;;
67187;SDS011;54117;53.532;49.426;2022-09-17T01:25:59;31.02;;;19.13;;
67187;SDS011;54117;53.532;49.426;2022-09-17T01:28:33;32.65;;;17.88;;
67187;SDS011;54117;53.532;49.426;2022-09-17T01:31:32;32.63;;;18.38;;
67187;SDS011;54117;53.532;49.426;2022-09-17T01:34:29;31.53;;;18.20;;
67187;SDS011;54117;53.532;49.426;2022-09-17T01:37:15;32.15;;;18.95;;
67187;SDS011;54117;53.532;49.426;2022-09-17T01:42:57;28.02;;;18.38;;
67187;SDS011;54117;53.532;49.426;2022-09-17T01:48:22;30.33;;;16.80;;
67187;SDS011;54117;53.532;49.426;2022-09-17T01:51:16;31.77;;;18.48;;
67187;SDS011;54117;53.532;49.426;2022-09-17T01:53:45;31.75;;;18.02;;
67187;SDS011;54117;53.532;49.426;2022-09-17T01:56:18;32.33;;;18.38;;
67187;SDS011;54117;53.532;49.426;2022-09-17T01:58:52;34.45;;;18.48;;
67187;SDS011;54117;53.532;49.426;2022-09-17T02:01:42;34.58;;;18.85;;
67187;SDS011;54117;53.532;49.426;2022-09-17T02:04:19;36.92;;;19.13;;
67187;SDS011;54117;53.532;49.426;2022-09-17T02:06:57;37.33;;;19.25;;
67187;SDS011;54117;53.532;49.426;2022-09-17T02:09:33;40.35;;;20.35;;
67187;SDS011;54117;53.532;49.426;2022-09-17T02:12:08;47.38;;;21.17;;
67187;SDS011;54117;53.532;49.426;2022-09-17T02:14:46;44.72;;;21.23;;
67187;SDS011;54117;53.532;49.426;2022-09-17T02:17:19;47.58;;;21.25;;
67187;SDS011;54117;53.532;49.426;2022-09-17T02:19:57;48.42;;;21.52;;
67187;SDS011;54117;53.532;49.426;2022-09-17T02:25:11;45.88;;;20.58;;
67187;SDS011;54117;53.532;49.426;2022-09-17T02:27:48;49.22;;;21.38;;
67187;SDS011;54117;53.532;49.426;2022-09-17T02:30:36;46.70;;;20.02;;
67187;SDS011;54117;53.532;49.426;2022-09-17T02:33:07;58.20;;;23.80;;
67187;SDS011;54117;53.532;49.426;2022-09-17T02:35:37;71.00;;;23.77;;
67187;SDS011;54117;53.532;49.426;2022-09-17T02:38:05;62.55;;;21.95;;
67187;SDS011;54117;53.532;49.426;2022-09-17T02:40:34;57.22;;;22.95;;
67187;SDS011;54117;53.532;49.426;2022-09-17T02:43:27;65.45;;;22.33;;
67187;SDS011;54117;53.532;49.426;2022-09-17T02:46:06;50.00;;;21.15;;
67187;SDS011;54117;53.532;49.426;2022-09-17T02:51:52;52.85;;;20.88;;
67187;SDS011;54117;53.532;49.426;2022-09-17T02:54:59;54.95;;;21.63;;
67187;SDS011;54117;53.532;49.426;2022-09-17T03:00:37;52.28;;;22.30;;
67187;SDS011;54117;53.532;49.426;2022-09-17T03:03:09;50.58;;;20.42;;
67187;SDS011;54117;53.532;49.426;2022-09-17T03:05:41;41.05;;;20.38;;
67187;SDS011;54117;53.532;49.426;2022-09-17T03:08:11;46.35;;;21.40;;
67187;SDS011;54117;53.532;49.426;2022-09-17T03:10:39;38.15;;;19.55;;
67187;SDS011;54117;53.532;49.426;2022-09-17T03:13:06;36.70;;;19.52;;
67187;SDS011;54117;53.532;49.426;2022-09-17T03:15:32;27.92;;;17.25;;
67187;SDS011;54117;53.532;49.426;2022-09-17T03:17:58;31.13;;;17.10;;
67187;SDS011;54117;53.532;49.426;2022-09-17T03:20:25;25.90;;;16.55;;
67187;SDS011;54117;53.532;49.426;2022-09-17T03:22:51;29.15;;;17.20;;
67187;SDS011;54117;53.532;49.426;2022-09-17T03:25:18;31.98;;;17.20;;
67187;SDS011;54117;53.532;49.426;2022-09-17T03:27:45;31.08;;;17.70;;
67187;SDS011;54117;53.532;49.426;2022-09-17T03:30:13;26.80;;;17.33;;
67187;SDS011;54117;53.532;49.426;2022-09-17T03:32:39;30.13;;;17.27;;
67187;SDS011;54117;53.532;49.426;2022-09-17T03:35:06;28.25;;;17.50;;
67187;SDS011;54117;53.532;49.426;2022-09-17T03:37:32;24.02;;;16.42;;
67187;SDS011;54117;53.532;49.426;2022-09-17T03:39:59;28.67;;;17.80;;
67187;SDS011;54117;53.532;49.426;2022-09-17T03:42:25;25.58;;;17.67;;
67187;SDS011;54117;53.532;49.426;2022-09-17T03:44:52;31.92;;;18.05;;
67187;SDS011;54117;53.532;49.426;2022-09-17T03:47:18;28.35;;;17.80;;
67187;SDS011;54117;53.532;49.426;2022-09-17T03:49:45;41.75;;;21.70;;
67187;SDS011;54117;53.532;49.426;2022-09-17T03:52:12;32.17;;;18.17;;
67187;SDS011;54117;53.532;49.426;2022-09-17T03:54:38;27.92;;;17.52;;
67187;SDS011;54117;53.532;49.426;2022-09-17T03:57:05;27.65;;;18.35;;
67187;SDS011;54117;53.532;49.426;2022-09-17T03:59:31;31.80;;;19.15;;
67187;SDS011;54117;53.532;49.426;2022-09-17T04:01:58;36.42;;;21.45;;
67187;SDS011;54117;53.532;49.426;2022-09-17T04:04:24;34.70;;;19.75;;
67187;SDS011;54117;53.532;49.426;2022-09-17T04:06:51;49.42;;;23.60;;
67187;SDS011;54117;53.532;49.426;2022-09-17T04:09:17;47.40;;;23.33;;
67187;SDS011;54117;53.532;49.426;2022-09-17T04:11:44;41.65;;;21.27;;
67187;SDS011;54117;53.532;49.426;2022-09-17T04:14:11;37.20;;;20.23;;
67187;SDS011;54117;53.532;49.426;2022-09-17T04:16:37;32.42;;;18.75;;
67187;SDS011;54117;53.532;49.426;2022-09-17T04:19:04;33.00;;;20.02;;
67187;SDS011;54117;53.532;49.426;2022-09-17T04:21:30;30.13;;;18.58;;
67187;SDS011;54117;53.532;49.426;2022-09-17T04:23:57;30.25;;;18.52;;
67187;SDS011;54117;53.532;49.426;2022-09-17T04:26:24;30.45;;;16.98;;
67187;SDS011;54117;53.532;49.426;2022-09-17T04:28:51;17.42;;;13.77;;
67187;SDS011;54117;53.532;49.426;2022-09-17T04:31:17;19.70;;;13.43;;
67187;SDS011;54117;53.532;49.426;2022-09-17T04:33:44;19.38;;;12.50;;
67187;SDS011;54117;53.532;49.426;2022-09-17T04:36:10;16.40;;;11.98;;
67187;SDS011;54117;53.532;49.426;2022-09-17T04:38:37;13.88;;;10.90;;
67187;SDS011;54117;53.532;49.426;2022-09-17T04:41:05;14.07;;;11.40;;
67187;SDS011;54117;53.532;49.426;2022-09-17T04:43:32;12.38;;;9.23;;
67187;SDS011;54117;53.532;49.426;2022-09-17T04:45:59;9.75;;;7.85;;
67187;SDS011;54117;53.532;49.426;2022-09-17T04:48:25;7.82;;;6.82;;
67187;SDS011;54117;53.532;49.426;2022-09-17T04:50:52;7.25;;;6.32;;
67187;SDS011;54117;53.532;49.426;2022-09-17T04:53:18;6.97;;;6.28;;
67187;SDS011;54117;53.532;49.426;2022-09-17T04:55:45;6.88;;;5.65;;
67187;SDS011;54117;53.532;49.426;2022-09-17T04:58:12;6.25;;;5.25;;
67187;SDS011;54117;53.532;49.426;2022-09-17T05:00:39;4.63;;;4.22;;
67187;SDS011;54117;53.532;49.426;2022-09-17T05:03:07;5.22;;;4.72;;
67187;SDS011;54117;53.532;49.426;2022-09-17T05:05:33;4.85;;;4.45;;
67187;SDS011;54117;53.532;49.426;2022-09-17T05:08:00;5.25;;;4.75;;
67187;SDS011;54117;53.532;49.426;2022-09-17T05:10:27;4.80;;;4.30;;
67187;SDS011;54117;53.532;49.426;2022-09-17T05:12:54;4.13;;;3.83;;
67187;SDS011;54117;53.532;49.426;2022-09-17T05:15:22;4.30;;;3.90;;
67187;SDS011;54117;53.532;49.426;2022-09-17T05:17:50;4.68;;;4.18;;
67187;SDS011;54117;53.532;49.426;2022-09-17T05:20:16;4.07;;;3.78;;
67187;SDS011;54117;53.532;49.426;2022-09-17T05:22:44;4.57;;;4.18;;
67187;SDS011;54117;53.532;49.426;2022-09-17T05:25:15;5.68;;;4.93;;
67187;SDS011;54117;53.532;49.426;2022-09-17T05:27:46;16.73;;;10.77;;
67187;SDS011;54117;53.532;49.426;2022-09-17T05:30:20;10.95;;;6.90;;
67187;SDS011;54117;53.532;49.426;2022-09-17T05:32:47;9.18;;;5.72;;
67187;SDS011;54117;53.532;49.426;2022-09-17T05:35:14;4.47;;;4.07;;
67187;SDS011;54117;53.532;49.426;2022-09-17T05:37:41;3.60;;;3.30;;
67187;SDS011;54117;53.532;49.426;2022-09-17T05:40:07;4.15;;;3.75;;
67187;SDS011;54117;53.532;49.426;2022-09-17T05:42:34;3.22;;;2.95;;
67187;SDS011;54117;53.532;49.426;2022-09-17T05:45:02;3.28;;;2.97;;
67187;SDS011;54117;53.532;49.426;2022-09-17T05:47:30;3.35;;;2.85;;
67187;SDS011;54117;53.532;49.426;2022-09-17T05:49:57;3.67;;;3.38;;
67187;SDS011;54117;53.532;49.426;2022-09-17T05:52:28;3.70;;;3.40;;
67187;SDS011;54117;53.532;49.426;2022-09-17T05:54:55;5.93;;;3.40;;
67187;SDS011;54117;53.532;49.426;2022-09-17T05:57:22;5.53;;;2.60;;
67187;SDS011;54117;53.532;49.426;2022-09-17T05:59:49;4.13;;;3.35;;
67187;SDS011;54117;53.532;49.426;2022-09-17T06:02:15;5.15;;;4.45;;
67187;SDS011;54117;53.532;49.426;2022-09-17T06:04:42;4.43;;;3.50;;
67187;SDS011;54117;53.532;49.426;2022-09-17T06:07:08;3.60;;;3.30;;
67187;SDS011;54117;53.532;49.426;2022-09-17T06:09:35;3.72;;;3.42;;
67187;SDS011;54117;53.532;49.426;2022-09-17T06:12:02;3.92;;;2.78;;
67187;SDS011;54117;53.532;49.426;2022-09-17T06:14:30;3.78;;;3.03;;
67187;SDS011;54117;53.532;49.426;2022-09-17T06:16:56;3.67;;;3.42;;
67187;SDS011;54117;53.532;49.426;2022-09-17T06:19:23;4.88;;;2.80;;
67187;SDS011;54117;53.532;49.426;2022-09-17T06:21:52;4.03;;;3.30;;
67187;SDS011;54117;53.532;49.426;2022-09-17T06:24:18;8.35;;;3.22;;
67187;SDS011;54117;53.532;49.426;2022-09-17T06:26:45;2.40;;;2.20;;
67187;SDS011;54117;53.532;49.426;2022-09-17T06:29:11;5.40;;;2.50;;
67187;SDS011;54117;53.532;49.426;2022-09-17T06:31:40;2.90;;;2.60;;
67187;SDS011;54117;53.532;49.426;2022-09-17T06:34:09;2.92;;;2.72;;
67187;SDS011;54117;53.532;49.426;2022-09-17T06:36:36;3.33;;;3.03;;
67187;SDS011;54117;53.532;49.426;2022-09-17T06:39:03;3.50;;;2.30;;
67187;SDS011;54117;53.532;49.426;2022-09-17T06:41:29;1.92;;;1.83;;
67187;SDS011;54117;53.532;49.426;2022-09-17T06:43:56;2.40;;;2.20;;
67187;SDS011;54117;53.532;49.426;2022-09-17T06:46:23;2.47;;;2.28;;
67187;SDS011;54117;53.532;49.426;2022-09-17T06:48:49;4.63;;;2.17;;
67187;SDS011;54117;53.532;49.426;2022-09-17T06:51:17;2.60;;;2.40;;
67187;SDS011;54117;53.532;49.426;2022-09-17T06:53:43;4.57;;;2.67;;
67187;SDS011;54117;53.532;49.426;2022-09-17T06:56:10;2.72;;;2.53;;
67187;SDS011;54117;53.532;49.426;2022-09-17T06:58:37;2.78;;;2.58;;
67187;SDS011;54117;53.532;49.426;2022-09-17T07:01:04;2.30;;;2.20;;
67187;SDS011;54117;53.532;49.426;2022-09-17T07:03:31;2.88;;;2.67;;
67187;SDS011;54117;53.532;49.426;2022-09-17T07:05:58;2.95;;;2.30;;
67187;SDS011;54117;53.532;49.426;2022-09-17T07:08:25;1.90;;;1.80;;
67187;SDS011;54117;53.532;49.426;2022-09-17T07:10:55;2.90;;;2.70;;
67187;SDS011;54117;53.532;49.426;2022-09-17T07:13:22;1.88;;;1.77;;
67187;SDS011;54117;53.532;49.426;2022-09-17T07:15:53;2.45;;;1.70;;
67187;SDS011;54117;53.532;49.426;2022-09-17T07:18:21;3.35;;;1.60;;
67187;SDS011;54117;53.532;49.426;2022-09-17T07:20:58;1.63;;;1.52;;
67187;SDS011;54117;53.532;49.426;2022-09-17T07:23:27;1.58;;;1.48;;
67187;SDS011;54117;53.532;49.426;2022-09-17T07:25:59;1.73;;;1.63;;
67187;SDS011;54117;53.532;49.426;2022-09-17T07:28:27;1.77;;;1.67;;
67187;SDS011;54117;53.532;49.426;2022-09-17T07:30:54;2.25;;;2.10;;
67187;SDS011;54117;53.532;49.426;2022-09-17T07:33:22;2.40;;;2.20;;
67187;SDS011;54117;53.532;49.426;2022-09-17T07:35:51;2.60;;;2.40;;
67187;SDS011;54117;53.532;49.426;2022-09-17T07:38:23;2.45;;;2.30;;
67187;SDS011;54117;53.532;49.426;2022-09-17T07:43:21;3.60;;;3.30;;
67187;SDS011;54117;53.532;49.426;2022-09-17T07:45:47;2.90;;;2.65;;
67187;SDS011;54117;53.532;49.426;2022-09-17T07:48:14;3.00;;;2.80;;
67187;SDS011;54117;53.532;49.426;2022-09-17T07:50:40;8.30;;;3.75;;
67187;SDS011;54117;53.532;49.426;2022-09-17T07:53:07;8.60;;;6.05;;
67187;SDS011;54117;53.532;49.426;2022-09-17T07:55:33;3.25;;;3.05;;
67187;SDS011;54117;53.532;49.426;2022-09-17T07:58:00;3.00;;;2.80;;
67187;SDS011;54117;53.532;49.426;2022-09-17T08:00:26;3.30;;;2.72;;
67187;SDS011;54117;53.532;49.426;2022-09-17T08:02:53;3.58;;;3.28;;
67187;SDS011;54117;53.532;49.426;2022-09-17T08:05:21;3.50;;;3.20;;
67187;SDS011;54117;53.532;49.426;2022-09-17T08:07:49;3.67;;;3.38;;
67187;SDS011;54117;53.532;49.426;2022-09-17T08:10:17;4.38;;;3.55;;
67187;SDS011;54117;53.532;49.426;2022-09-17T08:12:48;5.90;;;4.43;;
67187;SDS011;54117;53.532;49.426;2022-09-17T08:15:15;9.65;;;5.20;;
67187;SDS011;54117;53.532;49.426;2022-09-17T08:17:43;4.07;;;3.67;;
67187;SDS011;54117;53.532;49.426;2022-09-17T08:20:11;3.95;;;3.58;;
67187;SDS011;54117;53.532;49.426;2022-09-17T08:22:39;3.05;;;2.85;;
67187;SDS011;54117;53.532;49.426;2022-09-17T08:25:06;16.80;;;7.32;;
67187;SDS011;54117;53.532;49.426;2022-09-17T08:27:38;3.20;;;2.90;;
67187;SDS011;54117;53.532;49.426;2022-09-17T08:30:08;3.97;;;3.67;;
67187;SDS011;54117;53.532;49.426;2022-09-17T08:32:34;3.53;;;3.22;;
67187;SDS011;54117;53.532;49.426;2022-09-17T08:35:02;4.07;;;3.03;;
67187;SDS011;54117;53.532;49.426;2022-09-17T08:37:29;6.72;;;3.63;;
67187;SDS011;54117;53.532;49.426;2022-09-17T08:42:58;7.40;;;5.43;;
67187;SDS011;54117;53.532;49.426;2022-09-17T08:45:27;5.35;;;3.90;;
67187;SDS011;54117;53.532;49.426;2022-09-17T08:47:54;3.88;;;3.05;;
67187;SDS011;54117;53.532;49.426;2022-09-17T08:50:37;3.60;;;3.30;;
67187;SDS011;54117;53.532;49.426;2022-09-17T09:06:37;4.60;;;3.20;;
67187;SDS011;54117;53.532;49.426;2022-09-17T09:09:16;3.15;;;2.95;;
67187;SDS011;54117;53.532;49.426;2022-09-17T09:11:59;3.90;;;3.58;;
67187;SDS011;54117;53.532;49.426;2022-09-17T09:14:53;5.68;;;3.90;;
67187;SDS011;54117;53.532;49.426;2022-09-17T09:17:21;8.57;;;5.03;;
67187;SDS011;54117;53.532;49.426;2022-09-17T09:19:52;4.10;;;3.70;;
67187;SDS011;54117;53.532;49.426;2022-09-17T09:25:21;3.72;;;3.42;;
67187;SDS011;54117;53.532;49.426;2022-09-17T09:33:34;5.85;;;4.32;;
67187;SDS011;54117;53.532;49.426;2022-09-17T09:36:06;5.00;;;4.40;;
67187;SDS011;54117;53.532;49.426;2022-09-17T09:38:39;5.15;;;4.65;;
67187;SDS011;54117;53.532;49.426;2022-09-17T09:41:15;4.82;;;4.22;;
67187;SDS011;54117;53.532;49.426;2022-09-17T09:44:04;6.13;;;4.45;;
67187;SDS011;54117;53.532;49.426;2022-09-17T09:52:39;9.90;;;7.30;;
67187;SDS011;54117;53.532;49.426;2022-09-17T10:01:18;9.75;;;6.68;;
67187;SDS011;54117;53.532;49.426;2022-09-17T10:03:46;7.45;;;6.07;;
67187;SDS011;54117;53.532;49.426;2022-09-17T10:06:15;7.72;;;6.20;;
67187;SDS011;54117;53.532;49.426;2022-09-17T10:11:34;6.43;;;5.65;;
67187;SDS011;54117;53.532;49.426;2022-09-17T10:14:24;7.35;;;6.30;;
67187;SDS011;54117;53.532;49.426;2022-09-17T10:17:14;12.15;;;8.10;;
67187;SDS011;54117;53.532;49.426;2022-09-17T10:22:37;10.52;;;8.02;;
67187;SDS011;54117;53.532;49.426;2022-09-17T10:25:28;10.57;;;7.57;;
67187;SDS011;54117;53.532;49.426;2022-09-17T10:28:00;14.82;;;8.15;;
67187;SDS011;54117;53.532;49.426;2022-09-17T10:30:30;12.45;;;8.07;;
67187;SDS011;54117;53.532;49.426;2022-09-17T10:33:31;11.48;;;7.47;;
67187;SDS011;54117;53.532;49.426;2022-09-17T10:35:56;13.27;;;7.60;;
67187;SDS011;54117;53.532;49.426;2022-09-17T10:38:29;11.15;;;7.65;;
67187;SDS011;54117;53.532;49.426;2022-09-17T10:43:36;11.18;;;7.95;;
67187;SDS011;54117;53.532;49.426;2022-09-17T10:46:02;9.30;;;6.90;;
67187;SDS011;54117;53.532;49.426;2022-09-17T10:48:31;11.50;;;8.40;;
67187;SDS011;54117;53.532;49.426;2022-09-17T10:50:59;11.25;;;8.15;;
67187;SDS011;54117;53.532;49.426;2022-09-17T10:53:28;13.15;;;8.90;;
67187;SDS011;54117;53.532;49.426;2022-09-17T10:56:04;13.35;;;9.70;;
67187;SDS011;54117;53.532;49.426;2022-09-17T11:06:50;12.18;;;9.25;;
67187;SDS011;54117;53.532;49.426;2022-09-17T11:21:07;17.75;;;12.30;;
67187;SDS011;54117;53.532;49.426;2022-09-17T11:32:06;23.75;;;15.35;;
67187;SDS011;54117;53.532;49.426;2022-09-17T11:35:11;16.98;;;11.77;;
67187;SDS011;54117;53.532;49.426;2022-09-17T11:37:51;17.45;;;11.35;;
67187;SDS011;54117;53.532;49.426;2022-09-17T11:41:29;16.73;;;11.57;;
67187;SDS011;54117;53.532;49.426;2022-09-17T11:43:30;14.10;;;10.43;;
67187;SDS011;54117;53.532;49.426;2022-09-17T11:51:11;14.95;;;10.13;;
67187;SDS011;54117;53.532;49.426;2022-09-17T11:53:44;11.60;;;8.38;;
67187;SDS011;54117;53.532;49.426;2022-09-17T12:01:36;10.63;;;8.32;;
67187;SDS011;54117;53.532;49.426;2022-09-17T12:04:51;13.07;;;9.45;;
67187;SDS011;54117;53.532;49.426;2022-09-17T12:07:01;12.63;;;9.10;;
67187;SDS011;54117;53.532;49.426;2022-09-17T12:09:56;15.77;;;11.98;;
67187;SDS011;54117;53.532;49.426;2022-09-17T12:12:46;12.52;;;9.40;;
67187;SDS011;54117;53.532;49.426;2022-09-17T12:15:23;12.68;;;8.85;;
67187;SDS011;54117;53.532;49.426;2022-09-17T12:20:35;12.13;;;8.95;;
67187;SDS011;54117;53.532;49.426;2022-09-17T12:23:09;13.88;;;10.50;;
67187;SDS011;54117;53.532;49.426;2022-09-17T12:26:04;11.10;;;8.80;;
67187;SDS011;54117;53.532;49.426;2022-09-17T12:28:53;16.92;;;10.68;;
67187;SDS011;54117;53.532;49.426;2022-09-17T12:31:25;17.23;;;12.32;;
67187;SDS011;54117;53.532;49.426;2022-09-17T12:43:03;12.60;;;9.32;;
67187;SDS011;54117;53.532;49.426;2022-09-17T12:57:43;11.43;;;10.07;;
67187;SDS011;54117;53.532;49.426;2022-09-17T13:00:12;12.77;;;9.95;;
67187;SDS011;54117;53.532;49.426;2022-09-17T13:02:42;12.45;;;10.07;;
67187;SDS011;54117;53.532;49.426;2022-09-17T13:05:27;12.18;;;9.80;;
67187;SDS011;54117;53.532;49.426;2022-09-17T13:16:17;14.25;;;11.05;;
67187;SDS011;54117;53.532;49.426;2022-09-17T13:21:40;13.40;;;10.25;;
67187;SDS011;54117;53.532;49.426;2022-09-17T13:24:14;13.05;;;10.57;;
67187;SDS011;54117;53.532;49.426;2022-09-17T13:26:47;14.20;;;11.38;;
67187;SDS011;54117;53.532;49.426;2022-09-17T13:40:21;19.05;;;13.85;;
67187;SDS011;54117;53.532;49.426;2022-09-17T13:42:54;18.65;;;13.35;;
67187;SDS011;54117;53.532;49.426;2022-09-17T13:48:24;25.23;;;17.98;;
67187;SDS011;54117;53.532;49.426;2022-09-17T13:50:54;26.35;;;18.42;;
67187;SDS011;54117;53.532;49.426;2022-09-17T13:53:22;25.40;;;18.42;;
67187;SDS011;54117;53.532;49.426;2022-09-17T13:55:52;27.13;;;17.52;;
67187;SDS011;54117;53.532;49.426;2022-09-17T13:58:23;31.88;;;20.85;;
67187;SDS011;54117;53.532;49.426;2022-09-17T14:00:56;39.67;;;27.02;;
67187;SDS011;54117;53.532;49.426;2022-09-17T14:32:53;45.50;;;28.95;;
67187;SDS011;54117;53.532;49.426;2022-09-17T14:35:59;67.22;;;39.45;;
67187;SDS011;54117;53.532;49.426;2022-09-17T14:38:38;83.50;;;45.25;;
67187;SDS011;54117;53.532;49.426;2022-09-17T14:43:57;69.10;;;41.00;;
67187;SDS011;54117;53.532;49.426;2022-09-17T14:46:29;71.93;;;45.55;;
67187;SDS011;54117;53.532;49.426;2022-09-17T14:52:24;56.38;;;36.58;;
67187;SDS011;54117;53.532;49.426;2022-09-17T14:55:08;46.17;;;27.23;;
67187;SDS011;54117;53.532;49.426;2022-09-17T14:57:53;47.97;;;28.60;;
67187;SDS011;54117;53.532;49.426;2022-09-17T15:00:34;50.92;;;33.67;;
67187;SDS011;54117;53.532;49.426;2022-09-17T15:03:03;63.28;;;36.85;;
67187;SDS011;54117;53.532;49.426;2022-09-17T15:08:21;64.78;;;38.58;;
67187;SDS011;54117;53.532;49.426;2022-09-17T15:10:55;62.72;;;36.28;;
67187;SDS011;54117;53.532;49.426;2022-09-17T15:16:18;59.80;;;33.38;;
67187;SDS011;54117;53.532;49.426;2022-09-17T15:23:48;53.92;;;28.58;;
67187;SDS011;54117;53.532;49.426;2022-09-17T15:26:20;58.13;;;29.77;;
67187;SDS011;54117;53.532;49.426;2022-09-17T15:28:49;55.30;;;31.75;;
67187;SDS011;54117;53.532;49.426;2022-09-17T15:31:18;61.00;;;33.65;;
67187;SDS011;54117;53.532;49.426;2022-09-17T15:33:45;61.03;;;34.33;;
67187;SDS011;54117;53.532;49.426;2022-09-17T15:38:47;76.60;;;43.70;;
67187;SDS011;54117;53.532;49.426;2022-09-17T15:41:20;91.82;;;54.80;;
67187;SDS011;54117;53.532;49.426;2022-09-17T15:43:50;85.78;;;54.15;;
67187;SDS011;54117;53.532;49.426;2022-09-17T15:48:49;79.22;;;48.20;;
67187;SDS011;54117;53.532;49.426;2022-09-17T15:51:25;78.68;;;45.75;;
67187;SDS011;54117;53.532;49.426;2022-09-17T15:53:59;72.82;;;43.00;;
67187;SDS011;54117;53.532;49.426;2022-09-17T16:01:51;89.70;;;49.83;;
67187;SDS011;54117;53.532;49.426;2022-09-17T16:04:24;87.45;;;46.08;;
67187;SDS011;54117;53.532;49.426;2022-09-17T16:09:54;89.13;;;43.75;;
67187;SDS011;54117;53.532;49.426;2022-09-17T16:12:24;95.70;;;48.03;;
67187;SDS011;54117;53.532;49.426;2022-09-17T16:14:53;75.15;;;40.90;;
67187;SDS011;54117;53.532;49.426;2022-09-17T16:17:22;76.85;;;40.72;;
67187;SDS011;54117;53.532;49.426;2022-09-17T16:20:06;73.75;;;38.92;;
67187;SDS011;54117;53.532;49.426;2022-09-17T16:22:48;70.63;;;38.53;;
67187;SDS011;54117;53.532;49.426;2022-09-17T16:25:16;72.57;;;37.30;;
67187;SDS011;54117;53.532;49.426;2022-09-17T16:30:27;79.80;;;43.15;;
67187;SDS011;54117;53.532;49.426;2022-09-17T16:32:54;88.47;;;45.45;;
67187;SDS011;54117;53.532;49.426;2022-09-17T16:35:21;94.50;;;47.63;;
67187;SDS011;54117;53.532;49.426;2022-09-17T16:37:49;93.38;;;46.58;;
67187;SDS011;54117;53.532;49.426;2022-09-17T16:40:17;88.93;;;46.45;;
67187;SDS011;54117;53.532;49.426;2022-09-17T16:42:44;88.28;;;45.08;;
67187;SDS011;54117;53.532;49.426;2022-09-17T16:45:10;83.57;;;44.90;;
67187;SDS011;54117;53.532;49.426;2022-09-17T16:47:37;76.32;;;39.00;;
67187;SDS011;54117;53.532;49.426;2022-09-17T16:50:05;72.55;;;36.05;;
67187;SDS011;54117;53.532;49.426;2022-09-17T16:52:34;69.97;;;34.63;;
67187;SDS011;54117;53.532;49.426;2022-09-17T16:55:02;73.22;;;34.78;;
67187;SDS011;54117;53.532;49.426;2022-09-17T16:57:31;67.75;;;33.13;;
67187;SDS011;54117;53.532;49.426;2022-09-17T16:59:57;73.40;;;36.17;;
67187;SDS011;54117;53.532;49.426;2022-09-17T17:02:24;64.75;;;35.47;;
67187;SDS011;54117;53.532;49.426;2022-09-17T17:04:50;70.05;;;37.30;;
67187;SDS011;54117;53.532;49.426;2022-09-17T17:07:17;68.75;;;38.63;;
67187;SDS011;54117;53.532;49.426;2022-09-17T17:09:43;81.90;;;42.40;;
67187;SDS011;54117;53.532;49.426;2022-09-17T17:12:10;83.63;;;40.85;;
67187;SDS011;54117;53.532;49.426;2022-09-17T17:14:36;75.53;;;37.72;;
67187;SDS011;54117;53.532;49.426;2022-09-17T17:17:07;71.13;;;34.22;;
67187;SDS011;54117;53.532;49.426;2022-09-17T17:19:33;74.90;;;35.38;;
67187;SDS011;54117;53.532;49.426;2022-09-17T17:22:04;69.28;;;32.50;;
67187;SDS011;54117;53.532;49.426;2022-09-17T17:24:33;62.42;;;30.48;;
67187;SDS011;54117;53.532;49.426;2022-09-17T17:27:02;77.88;;;35.30;;
67187;SDS011;54117;53.532;49.426;2022-09-17T17:29:31;93.85;;;44.10;;
67187;SDS011;54117;53.532;49.426;2022-09-17T17:32:00;96.82;;;44.28;;
67187;SDS011;54117;53.532;49.426;2022-09-17T17:34:29;96.57;;;49.05;;
67187;SDS011;54117;53.532;49.426;2022-09-17T17:36:56;99.85;;;50.85;;
67187;SDS011;54117;53.532;49.426;2022-09-17T17:39:23;116.30;;;54.88;;
67187;SDS011;54117;53.532;49.426;2022-09-17T17:41:53;126.65;;;60.63;;
67187;SDS011;54117;53.532;49.426;2022-09-17T17:44:20;139.70;;;63.35;;
67187;SDS011;54117;53.532;49.426;2022-09-17T17:46:48;137.48;;;69.18;;
67187;SDS011;54117;53.532;49.426;2022-09-17T17:49:19;139.25;;;70.63;;
67187;SDS011;54117;53.532;49.426;2022-09-17T17:51:47;126.50;;;68.78;;
67187;SDS011;54117;53.532;49.426;2022-09-17T17:54:14;113.28;;;62.45;;
67187;SDS011;54117;53.532;49.426;2022-09-17T17:56:44;97.75;;;48.97;;
67187;SDS011;54117;53.532;49.426;2022-09-17T17:59:10;85.65;;;45.75;;
67187;SDS011;54117;53.532;49.426;2022-09-17T18:01:37;79.18;;;42.25;;
67187;SDS011;54117;53.532;49.426;2022-09-17T18:04:04;77.40;;;41.38;;
67187;SDS011;54117;53.532;49.426;2022-09-17T18:06:32;86.40;;;43.28;;
67187;SDS011;54117;53.532;49.426;2022-09-17T18:09:00;75.45;;;40.95;;
67187;SDS011;54117;53.532;49.426;2022-09-17T18:11:27;76.88;;;38.70;;
67187;SDS011;54117;53.532;49.426;2022-09-17T18:13:59;79.55;;;39.47;;
67187;SDS011;54117;53.532;49.426;2022-09-17T18:16:30;71.55;;;41.55;;
67187;SDS011;54117;53.532;49.426;2022-09-17T18:18:59;81.50;;;43.00;;
67187;SDS011;54117;53.532;49.426;2022-09-17T18:21:26;72.90;;;38.75;;
67187;SDS011;54117;53.532;49.426;2022-09-17T18:23:52;68.57;;;35.53;;
67187;SDS011;54117;53.532;49.426;2022-09-17T18:26:20;67.13;;;34.53;;
67187;SDS011;54117;53.532;49.426;2022-09-17T18:28:48;64.85;;;34.97;;
67187;SDS011;54117;53.532;49.426;2022-09-17T18:34:00;67.15;;;35.88;;
67187;SDS011;54117;53.532;49.426;2022-09-17T18:36:38;82.65;;;40.85;;